createdAt,value
2022-11-05T00:01:18.546Z,10.45
2022-11-05T00:04:06.118Z,16.35
2022-11-05T00:11:00.744Z,17.05
2022-11-05T00:13:46.825Z,15.65
2022-11-05T00:16:34.875Z,18.80
2022-11-05T00:19:07.535Z,19.05
2022-11-05T00:21:57.435Z,18.83
2022-11-05T00:24:43.662Z,16.80
2022-11-05T00:27:12.472Z,14.45
2022-11-05T00:29:41.103Z,9.77
2022-11-05T00:32:09.546Z,25.48
2022-11-05T00:34:39.402Z,12.60
2022-11-05T00:37:07.784Z,12.05
2022-11-05T00:39:36.233Z,16.20
2022-11-05T00:42:22.470Z,16.90
2022-11-05T00:45:03.236Z,14.10
2022-11-05T00:47:50.599Z,12.15
2022-11-05T00:50:22.784Z,12.68
2022-11-05T00:52:59.541Z,12.23
2022-11-05T00:55:34.369Z,16.80
2022-11-05T00:58:05.115Z,20.00
2022-11-05T01:00:37.126Z,11.02
2022-11-05T01:03:09.734Z,15.52
2022-11-05T01:05:43.535Z,14.82
2022-11-05T01:08:13.610Z,19.30
2022-11-05T01:10:43.493Z,11.00
2022-11-05T01:13:13.642Z,13.85
2022-11-05T01:15:43.168Z,17.83
2022-11-05T01:18:12.143Z,14.05
2022-11-05T01:20:42.135Z,19.23
2022-11-05T01:23:13.754Z,11.68
2022-11-05T01:25:42.830Z,17.48
2022-11-05T01:28:12.142Z,16.67
2022-11-05T01:30:41.311Z,16.25
2022-11-05T01:33:10.371Z,24.58
2022-11-05T01:35:42.208Z,17.83
2022-11-05T01:38:10.529Z,18.75
2022-11-05T01:40:43.889Z,18.02
2022-11-05T01:43:17.829Z,20.73
2022-11-05T01:45:50.809Z,22.52
2022-11-05T01:48:22.747Z,20.02
2022-11-05T01:50:59.210Z,17.48
2022-11-05T01:53:32.099Z,23.98
2022-11-05T01:56:06.078Z,19.17
2022-11-05T01:58:41.993Z,19.02
2022-11-05T02:01:11.044Z,19.70
2022-11-05T02:03:39.932Z,19.33
2022-11-05T02:06:09.986Z,19.67
2022-11-05T02:08:55.124Z,21.88
2022-11-05T02:11:24.045Z,19.95
2022-11-05T02:13:53.246Z,18.83
2022-11-05T02:16:40.383Z,25.98
2022-11-05T02:19:46.177Z,19.83
2022-11-05T02:22:56.350Z,27.73
2022-11-05T02:26:15.672Z,25.00
2022-11-05T02:29:23.177Z,25.58
2022-11-05T02:32:02.301Z,29.42
2022-11-05T02:34:43.614Z,29.55
2022-11-05T02:37:21.449Z,27.67
2022-11-05T02:39:57.710Z,25.38
2022-11-05T02:42:36.759Z,25.15
2022-11-05T02:45:18.751Z,25.02
2022-11-05T02:47:53.235Z,25.65
2022-11-05T02:50:29.103Z,26.80
2022-11-05T02:53:04.470Z,32.45
2022-11-05T02:58:06.485Z,30.63
2022-11-05T03:00:51.459Z,27.70
2022-11-05T03:03:28.649Z,28.83
2022-11-05T03:06:41.817Z,28.15
2022-11-05T03:09:43.372Z,25.25
2022-11-05T03:12:31.818Z,32.33
2022-11-05T03:15:11.982Z,33.92
2022-11-05T03:17:52.898Z,20.52
2022-11-05T03:20:27.068Z,21.05
2022-11-05T03:23:02.272Z,20.95
2022-11-05T03:25:33.561Z,26.27
2022-11-05T03:28:07.381Z,31.13
2022-11-05T03:30:37.849Z,26.50
2022-11-05T03:33:12.817Z,21.30
2022-11-05T03:35:48.399Z,21.88
2022-11-05T03:40:54.972Z,24.55
2022-11-05T03:43:29.453Z,28.13
2022-11-05T03:46:03.787Z,18.97
2022-11-05T03:48:34.415Z,26.05
2022-11-05T03:51:11.769Z,33.50
2022-11-05T03:53:47.979Z,28.92
2022-11-05T03:56:25.035Z,26.08
2022-11-05T03:58:59.082Z,28.08
2022-11-05T04:01:28.672Z,29.80
2022-11-05T04:03:57.161Z,29.83
2022-11-05T04:06:44.566Z,25.90
2022-11-05T04:09:30.368Z,24.90
2022-11-05T04:12:16.389Z,23.10
2022-11-05T04:14:45.123Z,20.15
2022-11-05T04:17:12.586Z,27.23
2022-11-05T04:20:00.455Z,27.98
2022-11-05T04:22:50.224Z,23.38
2022-11-05T04:25:20.566Z,25.15
2022-11-05T04:27:50.165Z,22.15
2022-11-05T04:30:19.434Z,19.65
2022-11-05T04:32:59.961Z,22.83
2022-11-05T04:35:29.753Z,27.35
2022-11-05T04:37:59.458Z,19.05
2022-11-05T04:40:28.495Z,25.48
2022-11-05T04:42:57.643Z,25.05
2022-11-05T04:45:28.560Z,25.67
2022-11-05T04:47:57.010Z,20.23
2022-11-05T04:50:25.539Z,19.40
2022-11-05T04:52:54.071Z,18.25
2022-11-05T04:55:24.732Z,15.98
2022-11-05T04:57:55.120Z,20.27
2022-11-05T05:00:25.647Z,23.38
2022-11-05T05:02:54.408Z,23.98
2022-11-05T05:05:23.779Z,19.55
2022-11-05T05:07:52.360Z,18.83
2022-11-05T05:10:20.945Z,23.27
2022-11-05T05:12:50.895Z,23.85
2022-11-05T05:15:19.729Z,22.50
2022-11-05T05:17:52.646Z,18.70
2022-11-05T05:20:38.549Z,21.65
2022-11-05T05:23:07.083Z,21.73
2022-11-05T05:25:35.489Z,20.38
2022-11-05T05:28:05.506Z,21.27
2022-11-05T05:30:33.963Z,20.48
2022-11-05T05:33:04.748Z,17.42
2022-11-05T05:35:33.287Z,28.90
2022-11-05T05:38:01.623Z,21.50
2022-11-05T05:40:30.730Z,18.33
2022-11-05T05:43:01.474Z,17.45
2022-11-05T05:45:31.974Z,25.20
2022-11-05T05:48:00.661Z,21.45
2022-11-05T05:50:29.266Z,20.50
2022-11-05T05:52:58.237Z,21.85
2022-11-05T05:55:26.689Z,18.35
2022-11-05T05:57:56.247Z,18.63
2022-11-05T06:00:27.045Z,20.38
2022-11-05T06:02:58.801Z,20.13
2022-11-05T06:05:28.796Z,13.27
2022-11-05T06:07:58.063Z,28.90
2022-11-05T06:10:26.965Z,16.25
2022-11-05T06:13:06.586Z,14.75
2022-11-05T06:15:37.072Z,16.75
2022-11-05T06:18:06.936Z,15.13
2022-11-05T06:20:35.602Z,14.90
2022-11-05T06:23:04.064Z,14.27
2022-11-05T06:25:34.961Z,15.93
2022-11-05T06:28:06.780Z,17.23
2022-11-05T06:30:35.136Z,13.68
2022-11-05T06:33:06.181Z,19.05
2022-11-05T06:35:34.796Z,14.68
2022-11-05T06:38:03.866Z,13.77
2022-11-05T06:40:32.360Z,17.02
2022-11-05T06:43:00.823Z,13.27
2022-11-05T06:45:29.303Z,14.73
2022-11-05T06:47:59.218Z,14.63
2022-11-05T06:50:30.539Z,23.90
2022-11-05T06:53:01.126Z,21.60
2022-11-05T06:55:31.625Z,17.67
2022-11-05T06:58:00.207Z,20.05
2022-11-05T07:00:29.310Z,20.55
2022-11-05T07:03:04.833Z,17.58
2022-11-05T07:05:38.087Z,19.92
2022-11-05T07:08:08.298Z,23.50
2022-11-05T07:10:36.935Z,18.20
2022-11-05T07:13:08.478Z,17.85
2022-11-05T07:15:37.808Z,14.13
2022-11-05T07:18:07.750Z,25.55
2022-11-05T07:20:37.645Z,23.27
2022-11-05T07:23:09.500Z,21.15
2022-11-05T07:25:38.581Z,21.15
2022-11-05T07:28:08.332Z,24.30
2022-11-05T07:30:37.764Z,21.38
2022-11-05T07:33:06.761Z,20.02
2022-11-05T07:35:36.656Z,23.95
2022-11-05T07:38:06.552Z,18.50
2022-11-05T07:40:35.231Z,39.83
2022-11-05T07:43:03.889Z,25.90
2022-11-05T07:45:33.153Z,33.47
2022-11-05T07:48:04.510Z,23.02
2022-11-05T07:50:37.157Z,29.55
2022-11-05T07:53:08.650Z,25.15
2022-11-05T07:55:37.489Z,24.80
2022-11-05T07:58:06.211Z,27.75
2022-11-05T08:00:35.573Z,24.30
2022-11-05T08:03:09.723Z,24.05
2022-11-05T08:05:43.321Z,25.27
2022-11-05T08:08:15.409Z,23.88
2022-11-05T08:10:43.912Z,18.10
2022-11-05T08:13:13.348Z,17.13
2022-11-05T08:15:43.604Z,21.40
2022-11-05T08:18:15.049Z,20.63
2022-11-05T08:20:47.133Z,18.30
2022-11-05T08:23:16.007Z,20.83
2022-11-05T08:25:44.630Z,19.85
2022-11-05T08:28:14.669Z,20.33
2022-11-05T08:30:43.248Z,18.83
2022-11-05T08:33:14.206Z,21.60
2022-11-05T08:35:44.536Z,11.90
2022-11-05T08:38:15.619Z,16.90
2022-11-05T08:40:46.035Z,12.40
2022-11-05T08:43:15.901Z,10.75
2022-11-05T08:45:44.249Z,10.75
2022-11-05T08:48:15.567Z,14.95
2022-11-05T08:50:47.479Z,17.90
2022-11-05T08:53:16.487Z,20.25
2022-11-05T08:55:47.742Z,15.13
2022-11-05T08:58:17.571Z,10.13
2022-11-05T09:00:48.089Z,9.40
2022-11-05T09:03:17.653Z,15.68
2022-11-05T09:05:47.783Z,12.60
2022-11-05T09:08:18.930Z,19.90
2022-11-05T09:10:49.764Z,11.63
2022-11-05T09:13:20.043Z,12.85
2022-11-05T09:15:49.650Z,12.23
2022-11-05T09:18:18.959Z,17.98
2022-11-05T09:20:48.902Z,14.90
2022-11-05T09:23:17.437Z,10.82
2022-11-05T09:25:46.371Z,12.30
2022-11-05T09:28:18.107Z,18.80
2022-11-05T09:30:48.340Z,9.80
2022-11-05T09:33:18.332Z,9.15
2022-11-05T09:35:48.643Z,8.88
2022-11-05T09:38:17.400Z,15.98
2022-11-05T09:41:00.731Z,9.90
2022-11-05T09:43:35.760Z,15.52
2022-11-05T09:46:12.993Z,10.68
2022-11-05T09:48:43.557Z,7.72
2022-11-05T09:51:23.397Z,15.73
2022-11-05T09:53:53.695Z,11.52
2022-11-05T09:56:27.697Z,9.02
2022-11-05T09:59:03.075Z,11.60
2022-11-05T10:04:09.601Z,6.15
2022-11-05T10:06:55.253Z,15.15
2022-11-05T10:09:31.275Z,10.63
2022-11-05T10:12:07.592Z,9.35
2022-11-05T10:14:41.966Z,7.10
2022-11-05T10:17:21.086Z,9.45
2022-11-05T10:19:55.527Z,12.10
2022-11-05T10:22:26.791Z,8.45
2022-11-05T10:24:56.266Z,13.63
2022-11-05T10:27:31.758Z,10.10
2022-11-05T10:30:00.781Z,10.32
2022-11-05T10:32:36.048Z,10.77
2022-11-05T10:35:09.156Z,7.35
2022-11-05T10:37:41.039Z,10.48
2022-11-05T10:40:20.884Z,10.38
2022-11-05T10:43:03.765Z,19.10
2022-11-05T10:45:41.551Z,12.98
2022-11-05T10:48:43.860Z,9.70
2022-11-05T10:51:14.009Z,10.45
2022-11-05T10:53:57.372Z,12.82
2022-11-05T10:56:33.912Z,11.13
2022-11-05T10:59:07.929Z,12.90
2022-11-05T11:01:39.732Z,8.20
2022-11-05T11:04:17.453Z,9.07
2022-11-05T11:06:52.505Z,7.97
2022-11-05T11:09:28.959Z,10.05
2022-11-05T11:12:03.809Z,11.85
2022-11-05T11:14:32.679Z,11.80
2022-11-05T11:17:28.537Z,9.07
2022-11-05T11:20:27.477Z,10.18
2022-11-05T11:23:06.494Z,17.08
2022-11-05T11:25:46.597Z,12.80
2022-11-05T11:28:24.564Z,11.52
2022-11-05T11:31:04.762Z,10.70
2022-11-05T11:33:34.961Z,6.05
2022-11-05T11:36:03.673Z,15.88
2022-11-05T11:38:35.128Z,6.22
2022-11-05T11:41:27.062Z,10.43
2022-11-05T11:44:00.794Z,9.35
2022-11-05T11:46:34.401Z,8.27
2022-11-05T11:49:03.762Z,6.22
2022-11-05T11:51:40.476Z,8.23
2022-11-05T11:54:23.898Z,8.85
2022-11-05T11:56:57.449Z,7.00
2022-11-05T12:03:08.073Z,9.27
2022-11-05T12:05:46.963Z,9.90
2022-11-05T12:08:41.622Z,11.43
2022-11-05T12:11:24.763Z,9.63
2022-11-05T12:14:04.517Z,9.75
2022-11-05T12:17:09.583Z,14.13
2022-11-05T12:20:03.052Z,7.57
2022-11-05T12:22:44.836Z,12.23
2022-11-05T12:25:23.966Z,8.23
2022-11-05T12:28:15.906Z,8.02
2022-11-05T12:30:56.051Z,12.70
2022-11-05T12:33:36.529Z,6.93
2022-11-05T12:36:19.168Z,6.65
2022-11-05T12:39:24.096Z,11.20
2022-11-05T12:42:02.596Z,9.93
2022-11-05T12:44:56.478Z,10.18
2022-11-05T12:47:47.854Z,9.20
2022-11-05T12:50:26.393Z,9.25
2022-11-05T12:53:52.532Z,10.43
2022-11-05T12:56:27.904Z,7.40
2022-11-05T13:01:38.564Z,14.35
2022-11-05T13:04:27.635Z,11.02
2022-11-05T13:06:58.560Z,6.47
2022-11-05T13:09:34.615Z,9.45
2022-11-05T13:12:09.438Z,6.13
2022-11-05T13:14:44.718Z,8.57
2022-11-05T13:17:20.668Z,11.52
2022-11-05T13:19:58.942Z,7.82
2022-11-05T13:22:39.316Z,10.00
2022-11-05T13:25:18.483Z,7.25
2022-11-05T13:27:56.860Z,12.55
2022-11-05T13:30:31.111Z,8.65
2022-11-05T13:33:04.944Z,11.10
2022-11-05T13:35:49.312Z,8.73
2022-11-05T13:38:43.501Z,11.90
2022-11-05T13:41:28.400Z,14.05
2022-11-05T13:44:38.675Z,12.27
2022-11-05T13:48:00.588Z,15.60
2022-11-05T13:51:07.727Z,8.43
2022-11-05T13:54:00.417Z,14.43
2022-11-05T13:56:46.903Z,11.02
2022-11-05T13:59:52.080Z,14.95
2022-11-05T14:02:26.120Z,11.70
2022-11-05T14:05:01.414Z,11.63
2022-11-05T14:07:35.178Z,10.02
2022-11-05T14:10:36.558Z,7.47
2022-11-05T14:13:19.542Z,16.27
2022-11-05T14:16:11.503Z,14.10
2022-11-05T14:18:46.143Z,12.23
2022-11-05T14:21:45.584Z,8.18
2022-11-05T14:24:43.104Z,12.23
2022-11-05T14:27:46.718Z,9.57
2022-11-05T14:30:46.653Z,14.30
2022-11-05T14:33:32.520Z,9.73
2022-11-05T14:36:33.212Z,10.07
2022-11-05T14:39:19.699Z,10.73
2022-11-05T14:42:03.719Z,10.15
2022-11-05T14:44:35.388Z,12.30
2022-11-05T14:47:08.319Z,12.07
2022-11-05T14:49:46.938Z,15.57
2022-11-05T14:52:18.969Z,11.70
2022-11-05T14:54:52.689Z,7.60
2022-11-05T14:58:15.116Z,10.43
2022-11-05T15:00:49.217Z,16.25
2022-11-05T15:03:54.732Z,11.23
2022-11-05T15:06:32.298Z,9.45
2022-11-05T15:09:30.720Z,10.25
2022-11-05T15:12:11.279Z,10.35
2022-11-05T15:14:52.198Z,12.10
2022-11-05T15:17:30.309Z,11.20
2022-11-05T15:20:11.708Z,14.27
2022-11-05T15:22:44.477Z,13.07
2022-11-05T15:25:20.015Z,9.95
2022-11-05T15:28:11.942Z,8.68
2022-11-05T15:30:55.874Z,16.48
2022-11-05T15:33:27.322Z,14.75
2022-11-05T15:35:57.258Z,14.50
2022-11-05T15:38:34.486Z,14.77
2022-11-05T15:41:07.133Z,9.40
2022-11-05T15:43:36.414Z,14.40
2022-11-05T15:46:09.016Z,14.27
2022-11-05T15:48:40.941Z,13.77
2022-11-05T15:51:11.419Z,14.48
2022-11-05T15:56:58.764Z,10.43
2022-11-05T15:59:30.418Z,15.68
2022-11-05T16:02:44.780Z,8.63
2022-11-05T16:05:16.035Z,6.15
2022-11-05T16:07:47.551Z,12.60
2022-11-05T16:10:28.326Z,10.95
2022-11-05T16:12:58.860Z,14.63
2022-11-05T16:15:32.783Z,12.27
2022-11-05T16:18:02.234Z,13.02
2022-11-05T16:20:35.423Z,16.02
2022-11-05T16:23:07.960Z,14.70
2022-11-05T16:25:41.844Z,6.40
2022-11-05T16:28:23.842Z,13.63
2022-11-05T16:30:57.567Z,12.43
2022-11-05T16:33:30.920Z,12.98
2022-11-05T16:36:00.944Z,12.63
2022-11-05T16:38:29.765Z,18.00
2022-11-05T16:41:00.441Z,19.33
2022-11-05T16:43:29.429Z,12.25
2022-11-05T16:46:02.475Z,19.08
2022-11-05T16:48:31.678Z,12.75
2022-11-05T16:51:02.995Z,11.13
2022-11-05T16:53:31.708Z,13.93
2022-11-05T16:56:00.489Z,16.02
2022-11-05T16:58:29.440Z,14.48
2022-11-05T17:01:05.781Z,23.88
2022-11-05T17:03:34.459Z,16.63
2022-11-05T17:06:04.958Z,17.27
2022-11-05T17:08:34.328Z,12.57
2022-11-05T17:11:03.334Z,17.25
2022-11-05T17:13:36.505Z,15.53
2022-11-05T17:16:06.367Z,14.10
2022-11-05T17:18:36.012Z,20.95
2022-11-05T17:21:07.123Z,10.55
2022-11-05T17:23:40.107Z,17.30
2022-11-05T17:26:11.971Z,13.32
2022-11-05T17:28:42.009Z,19.38
2022-11-05T17:31:15.352Z,20.83
2022-11-05T17:33:46.553Z,16.38
2022-11-05T17:36:17.627Z,15.27
2022-11-05T17:38:47.255Z,14.57
2022-11-05T17:41:18.501Z,15.75
2022-11-05T17:43:48.409Z,18.85
2022-11-05T17:46:21.945Z,12.93
2022-11-05T17:48:50.996Z,16.52
2022-11-05T17:51:22.878Z,17.55
2022-11-05T17:53:51.632Z,18.98
2022-11-05T17:56:32.444Z,12.48
2022-11-05T17:59:02.593Z,16.00
2022-11-05T18:01:41.322Z,18.10
2022-11-05T18:04:10.463Z,17.60
2022-11-05T18:06:42.493Z,17.05
2022-11-05T18:09:16.127Z,16.98
2022-11-05T18:11:47.097Z,16.30
2022-11-05T18:17:01.618Z,16.70
2022-11-05T18:19:31.211Z,15.98
2022-11-05T18:22:01.372Z,18.65
2022-11-05T18:24:30.500Z,18.23
2022-11-05T18:27:00.726Z,18.55
2022-11-05T18:29:31.212Z,25.70
2022-11-05T18:32:00.030Z,17.63
2022-11-05T18:34:29.169Z,19.73
2022-11-05T18:37:03.923Z,19.42
2022-11-05T18:39:33.106Z,25.42
2022-11-05T18:42:02.663Z,18.60
2022-11-05T18:44:36.297Z,15.95
2022-11-05T18:47:08.377Z,13.93
2022-11-05T18:49:38.092Z,24.38
2022-11-05T18:52:32.046Z,17.02
2022-11-05T18:55:01.389Z,24.00
2022-11-05T18:57:29.975Z,22.63
2022-11-05T19:00:00.043Z,28.58
2022-11-05T19:02:29.968Z,18.27
2022-11-05T19:05:28.630Z,26.90
2022-11-05T19:07:49.983Z,16.65
2022-11-05T19:10:19.164Z,19.20
2022-11-05T19:12:48.369Z,19.50
2022-11-05T19:15:20.217Z,20.38
2022-11-05T19:17:49.627Z,14.45
2022-11-05T19:20:18.828Z,18.60
2022-11-05T19:22:50.971Z,16.92
2022-11-05T19:25:19.892Z,19.75
2022-11-05T19:27:49.300Z,18.20
2022-11-05T19:30:18.173Z,20.85
2022-11-05T19:32:47.361Z,15.50
2022-11-05T19:35:18.852Z,16.50
2022-11-05T19:37:53.590Z,24.10
2022-11-05T19:40:22.664Z,18.23
2022-11-05T19:42:52.679Z,18.05
2022-11-05T19:45:43.591Z,20.00
2022-11-05T19:48:19.085Z,17.38
2022-11-05T19:50:52.195Z,18.55
2022-11-05T19:53:23.245Z,21.02
2022-11-05T19:55:52.209Z,15.98
2022-11-05T19:58:21.214Z,19.13
2022-11-05T20:00:51.636Z,17.30
2022-11-05T20:03:21.420Z,24.75
2022-11-05T20:05:51.199Z,14.52
2022-11-05T20:08:22.154Z,11.55
2022-11-05T20:10:59.828Z,18.52
2022-11-05T20:13:30.416Z,20.80
2022-11-05T20:16:00.060Z,12.88
2022-11-05T20:18:30.168Z,15.02
2022-11-05T20:21:08.610Z,20.52
2022-11-05T20:23:39.232Z,18.63
2022-11-05T20:26:10.553Z,17.50
2022-11-05T20:28:40.918Z,16.60
2022-11-05T20:31:13.585Z,18.48
2022-11-05T20:33:44.358Z,18.65
2022-11-05T20:36:19.153Z,13.35
2022-11-05T20:38:53.190Z,14.15
2022-11-05T20:41:22.461Z,15.95
2022-11-05T20:43:51.816Z,16.38
2022-11-05T20:46:23.802Z,13.80
2022-11-05T20:48:53.264Z,16.98
2022-11-05T20:51:25.835Z,14.07
2022-11-05T20:54:00.053Z,13.55
2022-11-05T20:56:31.000Z,12.38
2022-11-05T20:59:03.048Z,11.73
2022-11-05T21:01:35.636Z,17.88
2022-11-05T21:04:05.133Z,16.80
2022-11-05T21:06:36.729Z,16.25
2022-11-05T21:09:07.432Z,11.70
2022-11-05T21:11:52.386Z,15.15
2022-11-05T21:14:25.371Z,14.47
2022-11-05T21:16:58.249Z,15.95
2022-11-05T21:19:29.609Z,18.10
2022-11-05T21:22:02.702Z,17.98
2022-11-05T21:24:33.729Z,13.45
2022-11-05T21:27:03.475Z,17.88
2022-11-05T21:29:40.719Z,14.65
2022-11-05T21:32:23.540Z,14.57
2022-11-05T21:34:54.615Z,19.85
2022-11-05T21:37:24.119Z,15.57
2022-11-05T21:39:57.415Z,16.27
2022-11-05T21:42:26.446Z,17.92
2022-11-05T21:44:59.993Z,11.25
2022-11-05T21:47:30.583Z,18.88
2022-11-05T21:50:00.274Z,14.75
2022-11-05T21:52:46.095Z,16.90
2022-11-05T21:58:35.070Z,22.02
2022-11-05T22:01:05.196Z,13.32
2022-11-05T22:03:34.043Z,17.17
2022-11-05T22:06:04.153Z,13.95
2022-11-05T22:08:35.276Z,17.65
2022-11-05T22:11:07.313Z,17.70
2022-11-05T22:13:38.338Z,12.48
2022-11-05T22:16:11.671Z,17.42
2022-11-05T22:18:43.206Z,13.98
2022-11-05T22:21:19.722Z,17.15
2022-11-05T22:23:48.464Z,11.52
2022-11-05T22:26:19.074Z,16.67
2022-11-05T22:28:52.405Z,16.30
2022-11-05T22:31:23.352Z,12.30
2022-11-05T22:33:55.583Z,15.32
2022-11-05T22:36:25.384Z,15.48
2022-11-05T22:38:57.292Z,18.70
2022-11-05T22:41:28.293Z,22.60
2022-11-05T22:43:57.714Z,14.32
2022-11-05T22:46:28.629Z,12.55
2022-11-05T22:49:00.037Z,20.55
2022-11-05T22:51:32.297Z,14.23
2022-11-05T22:54:04.668Z,18.42
2022-11-05T22:56:38.052Z,19.38
2022-11-05T22:59:09.664Z,13.25
2022-11-05T23:01:38.739Z,13.93
2022-11-05T23:04:08.639Z,17.00
2022-11-05T23:06:54.833Z,16.10
2022-11-05T23:09:43.863Z,13.93
2022-11-05T23:12:25.508Z,15.70
2022-11-05T23:14:55.285Z,14.95
2022-11-05T23:17:42.462Z,15.40
2022-11-05T23:20:33.892Z,16.08
2022-11-05T23:23:21.380Z,14.48
2022-11-05T23:34:47.016Z,15.02
2022-11-05T23:37:34.020Z,15.07
2022-11-05T23:40:04.084Z,17.90
2022-11-05T23:42:50.343Z,17.08
2022-11-05T23:45:38.291Z,12.48
2022-11-05T23:48:20.072Z,15.93
2022-11-05T23:50:53.294Z,14.27
2022-11-05T23:53:22.818Z,14.20
2022-11-05T23:55:55.091Z,23.58
2022-11-05T23:58:25.038Z,16.02
